CheckWX is a tool to help pilots better visualize weather data.  It is not intended as a substitute for an official pre-flight weather briefing.

02:52:05 UTC

SCAT METAR
Desierto de Atacama Airport
Copiapo, Chile
Current

52 mins ago

SCAT 220200Z AUTO 08006KT 9999 // NCD 08/05 Q1019
Observed
May-22 @ 02:00 UTC
Wind
  • 080° at 6 KTS
Visibility
10,000+ meters
Flight Rules
VFR
Cloud Levels
  • Clear skies
Temperature
C / 46°F
Dewpoint
C / 41°F
Humidity
82%
Altimeter
30.09" Hg
Pressure
1018.92 hPa
Previous

2 hours ago

SCAT 220100Z 18003KT 080V250 CAVOK 09/06 Q1019
Observed
May-22 @ 01:00 UTC
Wind
  • 180° at 3 KTS
Visibility
10,000+ meters
Flight Rules
VFR
Cloud Levels
  • Clear skies
Temperature
C / 48°F
Dewpoint
C / 43°F
Humidity
82%
Altimeter
30.09" Hg
Pressure
1018.92 hPa
Previous

3 hours ago

SCAT 220000Z 24004KT CAVOK 10/07 Q1018
Observed
May-22 @ 00:00 UTC
Wind
  • 240° at 4 KTS
Visibility
10,000+ meters
Flight Rules
VFR
Cloud Levels
  • Clear skies
Temperature
10°C / 50°F
Dewpoint
C / 45°F
Humidity
82%
Altimeter
30.06" Hg
Pressure
1017.92 hPa